Brule, NE (69127)

1:42 AM MST on February 24, 2017 (GMT -0700)
| | Change Station
Active Advisory: Winter Weather Advisory

Elev -9999 ft 0.00 °N, 0.00 °E | Updated 17 minutes ago

Snow
Snow
°F
Feels Like °F
N
Wind Variable Wind from North
Gusts mph

Today
High -- | Low -- °F
--% Chance of Precip.
Yesterday
High -- | Low -- °F
Precip. -- in
Pressure 29.85 in
Visibility 2.5 miles
Clouds Scattered Clouds 1500 ft
Overcast 2300 ft
Dew Point Not available.
Humidity Not available.
Rainfall --
Snow Depth Not available.
6:28 AM 5:33 PM
Waning Crescent, 6% visible
METAR KOGA 240815Z AUTO 36023G29KT 2 1/2SM -SN SCT015 OVC023 M04/M06 A2985 RMK AO2 T10421064
Pressure 29.85 in
Visibility 2.5 miles
Clouds Scattered Clouds 1500 ft
Overcast 2300 ft
Dew Point Not available.
Humidity Not available.
Rainfall --
Snow Depth Not available.
6:28 AM 5:33 PM
Waning Crescent, 6% visible
METAR KOGA 240815Z AUTO 36023G29KT 2 1/2SM -SN SCT015 OVC023 M04/M06 A2985 RMK AO2 T10421064

Get Your Daily Forecast Email!

Thanks for signing up!

Be on the lookout for a verification email in your inbox.

You'll start receiving the daily forecast at 8 AM.

×

10-Day Weather Forecast

Almanac

Astronomy

Feb. 24, 2017 Rise Set
Actual Time
Civil Twilight
Nautical Twilight
Astronomical Twilight
Moon
Length of Visible Light
Length of Day
Tomorrow will be .
, % of the Moon is Illuminated

Today's Extremes

State Highs State Lows

Community

WunderPhotos

Upload Photos

1,962,540 photos uploaded!

WunderBlog® & News

Nearby

Air Quality

  Air Quality AQ Index Pollutant
Not available.

Snow Depth

Station Depth Elevation

Earthquake Activity

City Distance Mag. Time & Date
Minimum magnitude displayed is 2.5.

Coastal Water Temperatures

Place Temperature

Stations

Nearby Weather Stations

Station Location Temp. Windchill Dew Point Humidity Wind Precip. Elev Updated Type
                   

Watches & Warnings

Winter Weather Advisory
Issued: 3:24 PM MST Feb. 23, 2017 – National Weather Service

A Winter Weather Advisory remains in effect until 6 PM CST /5 PM
MST/ Friday.

* Timing... expect snow to continue... diminishing Friday afternoon.

* The heaviest snowfall rates will occur between 6 PM this evening
and 6 am Friday.

* Additional snow accumulations of 3 to 4 inches are expected.

* Impacts... plan on difficult driving conditions.

Precautionary/preparedness actions...

A Winter Weather Advisory for snow means periods of snow will
cause primarily travel difficulties. Be prepared for snow covered
roads and limited visibilities... and use caution while driving.
The latest Road conditions for the state you are calling from can
be obtained by calling 5 1 1.


Power